Latest Coastal Weather Observations for Port Lincoln Airport

IDS60701

Issued at 1:11 am CDT Tuesday 9 February 2016 (issued every 10 minutes, with the page automatically refreshed every 10 minutes)

About coastal observations | Map of coastal stations | Coastal observations for SA | Marine services | Other Formats
Station Details ID: 018192 Name: PORT LINCOLN AWS Lat: -34.60 Lon: 135.88 Height: 8.5 m
Data from the previous 72 hours. | See also: Recent months at Port Lincoln Airport
Date/Time
CDT
Temp

°C
Wind Pressure Rain
since 9am
mm
Weather Cloud Vis
km
Sea
Height
m
Swell
Dir
 
Speed
knots
Gust
knots
hPa Trend Height
m
Period
s
Dir
09/01:00am 18.2 ESE 14 17 1021.8 - 0.0 - Partly cloudy 10 - - - -
09/12:30am 18.2 ESE 13 18 1022.0 - 0.0 - Cloudy 10 - - - -
09/12:00am 17.9 ESE 14 20 1022.1 - 0.0 - Mostly clear 10 - - - -
 
Date/Time
CDT
Temp

°C
Wind Pressure Rain
since 9am
mm
Weather Cloud Vis
km
Sea
Height
m
Swell
Dir
 
Speed
knots
Gust
knots
hPa Trend Height
m
Period
s
Dir
08/11:30pm 18.3 SE 16 20 1022.2 - 0.0 - Partly cloudy 10 - - - -
08/11:00pm 18.9 SE 15 19 1022.3 - 0.0 - Partly cloudy 10 - - - -
08/10:30pm 18.4 SSE 12 16 1022.4 - 0.0 - - 10 - - - -
08/10:00pm 18.2 SSE 15 18 1022.2 - 0.0 - - 10 - - - -
08/09:30pm 18.3 SSE 16 19 1022.1 - 0.0 - - 10 - - - -
08/09:00pm 18.5 SSE 18 22 1021.8 - 0.0 - - 10 - - - -
08/08:30pm 18.7 SSE 18 21 1021.6 - 0.0 - - 10 - - - -
08/08:00pm 19.4 SSE 16 19 1021.5 - 0.0 - - 10 - - - -
08/07:30pm 20.3 SSE 16 19 1021.5 - 0.0 - - 10 - - - -
08/07:00pm 21.0 SSE 16 19 1021.3 - 0.0 - - 10 - - - -
08/06:30pm 21.7 SSE 15 18 1021.3 - 0.0 - - 10 - - - -
08/06:00pm 21.8 SSE 15 19 1021.5 - 0.0 - - 10 - - - -
08/05:30pm 22.2 SE 16 19 1021.6 - 0.0 - - 10 - - - -
08/05:00pm 22.1 SE 15 19 1021.8 - 0.0 - - 10 - - - -
08/04:30pm 22.3 SSE 16 20 1022.1 - 0.0 - - 10 - - - -
08/04:00pm 22.1 SE 17 21 1022.3 - 0.0 - - 10 - - - -
08/03:30pm 21.7 SE 16 20 1022.6 - 0.0 - - 10 - - - -
08/03:00pm 21.8 SE 17 22 1022.7 - 0.0 - Mostly clear 10 - - - -
08/02:30pm 21.9 SE 16 21 1022.9 - 0.0 - - 10 - - - -
08/02:00pm 21.6 SE 16 22 1023.1 - 0.0 - Partly cloudy 10 - - - -
08/01:30pm 20.5 SE 17 22 1023.4 - 0.0 - Cloudy 10 - - - -
08/01:00pm 20.8 SE 17 22 1023.6 - 0.0 - Cloudy 10 - - - -
08/12:30pm 20.2 SE 16 21 1023.9 - 0.0 - Cloudy 10 - - - -
08/12:00pm 20.3 SE 16 21 1024.2 - 0.0 - Mostly cloudy 10 - - - -
08/11:30am 19.9 SE 16 19 1024.2 - 0.0 - Cloudy 10 - - - -
08/11:00am 19.7 SE 15 19 1024.3 - 0.0 - Cloudy 10 - - - -
08/10:30am 18.7 SE 14 18 1024.4 - 0.0 - Cloudy 10 - - - -
08/10:00am 18.9 ESE 15 19 1024.3 - 0.0 - Cloudy 10 - - - -
08/09:30am 18.6 SE 15 19 1024.2 - 0.0 - Cloudy 10 - - - -
08/09:00am 18.1 SE 15 19 1024.0 - 0.0 - Cloudy 10 - - - -
08/08:30am 18.0 SE 13 19 1023.7 - 0.0 - Cloudy 10 - - - -
08/08:00am 17.7 SE 13 17 1023.4 - 0.0 - Cloudy 10 - - - -
08/07:30am 17.5 SE 12 17 1023.1 - 0.0 - Cloudy 10 - - - -
08/07:00am 17.5 SSE 12 17 1022.8 - 0.0 - Cloudy 10 - - - -
08/06:30am 17.6 SSE 13 17 1022.4 - 0.0 - Cloudy 10 - - - -
08/06:00am 17.6 SSE 12 15 1022.3 - 0.0 - Mostly cloudy 10 - - - -
08/05:30am 17.7 SE 12 15 1021.9 - 0.0 - Cloudy 10 - - - -
08/05:00am 17.7 SE 12 15 1021.8 - 0.0 - Cloudy 10 - - - -
08/04:30am 17.6 SSE 12 16 1021.8 - 0.0 - Cloudy 10 - - - -
08/04:00am 17.5 SSE 13 16 1021.9 - 0.0 - Cloudy 10 - - - -
08/03:30am 17.5 SE 11 14 1022.0 - 0.0 - Partly cloudy 10 - - - -
08/03:00am 17.5 SE 12 17 1022.1 - 0.0 - Mostly cloudy 10 - - - -
08/02:30am 17.7 SSE 14 16 1022.1 - 0.0 - Cloudy 10 - - - -
08/02:00am 17.7 SE 14 18 1022.2 - 0.0 - Cloudy 10 - - - -
08/01:30am 17.5 SSE 13 19 1022.5 - 0.0 - Cloudy 10 - - - -
08/01:00am 17.6 SSE 15 19 1022.5 - 0.0 - Partly cloudy 10 - - - -
08/12:30am 17.7 SSE 16 19 1022.5 - 0.0 - Partly cloudy 10 - - - -
08/12:00am 18.0 SSE 15 19 1022.5 - 0.0 - Mostly cloudy 10 - - - -
 
Date/Time
CDT
Temp

°C
Wind Pressure Rain
since 9am
mm
Weather Cloud Vis
km
Sea
Height
m
Swell
Dir
 
Speed
knots
Gust
knots
hPa Trend Height
m
Period
s
Dir
07/11:57pm 18.1 SSE 15 19 1022.5 - 0.0 - Partly cloudy 10 - - - -
07/11:39pm 18.0 SSE 17 22 1022.4 - 0.0 - Partly cloudy 10 - - - -
07/11:30pm 17.9 SSE 17 20 1022.3 - 0.0 - Partly cloudy 10 - - - -
07/11:00pm 18.0 SSE 18 22 1022.3 - 0.0 - Partly cloudy 10 - - - -
07/10:57pm 18.0 SSE 18 22 1022.2 - 0.0 - Partly cloudy 10 - - - -
07/10:30pm 18.0 SSE 16 20 1022.2 - 0.0 - Partly cloudy 10 - - - -
07/10:00pm 17.9 SSE 16 21 1021.9 - 0.0 - Partly cloudy 10 - - - -
07/09:53pm 17.9 SSE 17 21 1021.8 - 0.0 - Partly cloudy 10 - - - -
07/09:30pm 18.1 SSE 16 21 1021.4 - 0.0 - Partly cloudy 10 - - - -
07/09:00pm 18.2 S 15 19 1021.2 - 0.0 - Partly cloudy 10 - - - -
07/08:30pm 18.5 S 15 18 1020.8 - 0.0 - - 10 - - - -
07/08:00pm 19.0 S 16 21 1020.4 - 0.0 - - 10 - - - -
07/07:30pm 19.8 S 17 20 1019.9 - 0.0 - - 10 - - - -
07/07:00pm 20.8 S 17 21 1019.5 - 0.0 - - 10 - - - -
07/06:30pm 21.1 SSW 17 21 1019.4 - 0.0 - - 10 - - - -
07/06:00pm 21.7 S 17 20 1019.2 - 0.0 - - 10 - - - -
07/05:30pm 22.2 S 16 19 1019.3 - 0.0 - - 10 - - - -
07/05:00pm 22.3 S 15 19 1019.1 - 0.0 - - 10 - - - -
07/04:30pm 23.0 S 14 18 1019.1 - 0.0 - - 10 - - - -
07/04:00pm 22.2 S 15 19 1019.2 - 0.0 - - 10 - - - -
07/03:30pm 22.9 SSE 14 17 1019.2 - 0.0 - - 10 - - - -
07/03:00pm 22.0 SE 14 17 1019.1 - 0.0 - - 10 - - - -
07/02:30pm 22.7 S 15 19 1019.4 - 0.0 - - 10 - - - -
07/02:00pm 23.6 S 14 19 1019.5 - 0.0 - - 10 - - - -
07/01:30pm 22.3 S 14 16 1019.6 - 0.0 - - 10 - - - -
07/01:00pm 22.5 S 13 17 1019.6 - 0.0 - - 10 - - - -
07/12:30pm 22.1 SE 10 15 1019.8 - 0.0 - - 10 - - - -
07/12:00pm 21.2 SE 9 13 1019.9 - 0.0 - - 10 - - - -
07/11:30am 21.1 SE 10 15 1019.9 - 0.0 - - 10 - - - -
07/11:00am 20.8 SSE 9 15 1020.0 - 0.0 - Partly cloudy 10 - - - -
07/10:30am 20.4 SSE 9 14 1020.0 - 0.0 - Cloudy 10 - - - -
07/10:00am 20.6 SSE 11 14 1019.9 - 0.0 - Partly cloudy 10 - - - -
07/09:30am 19.9 SSE 9 13 1019.7 - 0.0 - Cloudy 10 - - - -
07/09:00am 19.2 SSE 11 14 1019.6 - 0.0 - Mostly cloudy 10 - - - -
07/08:30am 18.6 SSE 11 14 1019.4 - 0.0 - Partly cloudy 10 - - - -
07/08:00am 19.2 SSE 11 14 1019.0 - 0.0 - Cloudy 10 - - - -
07/07:30am 17.6 SSE 10 12 1018.7 - 0.0 - Cloudy 10 - - - -
07/07:00am 17.3 SSE 10 13 1018.3 - 0.0 - Cloudy 10 - - - -
07/06:30am 17.3 SSE 12 15 1018.1 - 0.0 - Cloudy 10 - - - -
07/06:00am 16.8 SSE 11 14 1017.9 - 0.0 - Partly cloudy 10 - - - -
07/05:51am 16.7 SSE 11 13 1017.8 - 0.0 - Partly cloudy 10 - - - -
07/05:30am 16.9 SSE 12 15 1017.6 - 0.0 - Partly cloudy 10 - - - -
07/05:11am 16.9 S 12 15 1017.7 - 0.0 - Partly cloudy 10 - - - -
07/05:00am 16.8 S 14 17 1017.6 - 0.0 - Partly cloudy 10 - - - -
07/04:52am 16.8 S 12 17 1017.7 - 0.0 - Partly cloudy 10 - - - -
07/04:30am 16.8 S 15 17 1017.6 - 0.0 - Cloudy 10 - - - -
07/04:00am 16.8 S 11 16 1017.3 - 0.0 - Partly cloudy 10 - - - -
07/03:30am 16.7 SSW 11 15 1017.3 - 0.0 - Cloudy 10 - - - -
07/03:00am 17.2 SSE 9 12 1016.9 - 0.0 - Mostly cloudy 10 - - - -
07/02:30am 17.0 S 11 13 1017.1 - 0.0 - Cloudy 10 - - - -
07/02:00am 17.2 S 11 14 1017.1 - 0.0 - Partly cloudy 10 - - - -
07/01:49am 16.9 SSE 9 11 1017.0 - 0.0 - Partly cloudy 10 - - - -
07/01:33am 16.6 SSE 11 13 1016.9 - 0.0 - Partly cloudy 10 - - - -
07/01:30am 16.7 SSE 11 13 1017.0 - 0.0 - Partly cloudy 10 - - - -
07/01:00am 16.9 SSE 10 14 1017.3 - 0.0 - Partly cloudy 10 - - - -
07/12:30am 17.0 SSE 14 17 1017.5 - 0.0 - Partly cloudy 10 - - - -
07/12:00am 17.2 S 13 16 1017.8 - 0.0 - Mostly cloudy 10 - - - -
 
Date/Time
CDT
Temp

°C
Wind Pressure Rain
since 9am
mm
Weather Cloud Vis
km
Sea
Height
m
Swell
Dir
 
Speed
knots
Gust
knots
hPa Trend Height
m
Period
s
Dir
06/11:30pm 17.1 S 14 18 1018.0 - 0.0 - Partly cloudy 10 - - - -
06/11:17pm 17.1 S 13 16 1017.9 - 0.0 - Partly cloudy 10 - - - -
06/11:00pm 17.1 S 12 16 1017.9 - 0.0 - Partly cloudy 10 - - - -
06/10:30pm 17.3 S 16 19 1017.5 - 0.0 - - 10 - - - -
06/10:00pm 17.4 S 13 18 1017.3 - 0.0 - - 10 - - - -
06/09:30pm 17.5 S 14 18 1017.1 - 0.0 - - 10 - - - -
06/09:15pm 17.5 S 15 19 1017.0 - 0.0 - Partly cloudy 10 - - - -
06/09:00pm 17.7 S 16 21 1017.0 - 0.0 - Partly cloudy 10 - - - -
06/08:30pm 17.9 SSW 15 18 1016.9 - 0.0 - Partly cloudy 10 - - - -
06/08:24pm 17.9 SSW 13 18 1016.8 - 0.0 - Partly cloudy 10 - - - -
06/08:00pm 18.3 SSW 16 19 1016.4 - 0.0 - - 10 - - - -
06/07:30pm 19.6 S 16 19 1015.9 - 0.0 - - 10 - - - -
06/07:00pm 20.5 S 16 19 1015.6 - 0.0 - - 10 - - - -
06/06:30pm 21.4 S 15 17 1015.4 - 0.0 - - 10 - - - -
06/06:00pm 21.4 S 16 19 1015.3 - 0.0 - - 10 - - - -
06/05:30pm 21.5 S 19 22 1015.3 - 0.0 - - 10 - - - -
06/05:00pm 22.6 S 19 22 1015.1 - 0.0 - - 10 - - - -
06/04:30pm 23.2 S 18 21 1014.9 - 0.0 - - 10 - - - -
06/04:00pm 24.1 S 15 18 1015.1 - 0.0 - - 10 - - - -
06/03:30pm 24.3 S 15 17 1015.1 - 0.0 - - 10 - - - -
06/03:00pm 23.7 S 14 17 1015.5 - 0.0 - - 10 - - - -
06/02:30pm 23.7 S 14 17 1015.7 - 0.0 - - 10 - - - -
06/02:00pm 23.7 S 15 18 1015.9 - 0.0 - - 10 - - - -
06/01:30pm 23.9 S 14 16 1016.0 - 0.0 - - 10 - - - -
06/01:00pm 23.2 SSE 13 15 1016.2 - 0.0 - - 10 - - - -
06/12:30pm 23.6 SSE 13 16 1016.2 - 0.0 - - 10 - - - -
06/12:00pm 22.7 SSE 11 14 1016.4 - 0.0 - - 10 - - - -
06/11:30am 22.5 SSE 10 13 1016.5 - 0.0 - - 10 - - - -
06/11:00am 21.7 SSE 11 13 1016.7 - 0.0 - - 10 - - - -
06/10:30am 21.1 S 10 12 1016.8 - 0.0 - - 10 - - - -
06/10:00am 19.7 SSE 9 11 1016.7 - 0.0 - - 10 - - - -
06/09:30am 19.0 S 8 11 1016.7 - 0.0 - - 10 - - - -
06/09:00am 18.8 S 8 10 1016.5 - 0.0 - Mostly clear 10 - - - -
06/08:44am 18.8 SSE 6 9 1016.4 - 0.0 - Partly cloudy 10 - - - -
06/08:30am 18.7 SSE 7 8 1016.4 - 0.0 - Partly cloudy 10 - - - -
06/08:28am 18.5 SSE 6 8 1016.4 - 0.0 - Partly cloudy 10 - - - -
06/08:00am 18.3 SE 5 7 1016.3 - 0.0 - Partly cloudy 10 - - - -
06/07:56am 18.2 ESE 5 7 1016.2 - 0.0 - Partly cloudy 10 - - - -
06/07:30am 17.1 ESE 5 7 1016.2 - 0.0 - Partly cloudy 10 - - - -
06/07:00am 16.4 SE 7 8 1016.0 - 0.0 - Partly cloudy 10 - - - -
06/06:30am 17.2 SE 8 10 1015.7 - 0.0 - Cloudy 10 - - - -
06/06:00am 17.3 SE 8 9 1015.5 - 0.0 - Cloudy 10 - - - -
06/05:30am 17.1 SE 9 12 1015.5 - 0.0 - Cloudy 10 - - - -
06/05:00am 17.0 SSE 9 11 1015.5 - 0.0 - Cloudy 10 - - - -
06/04:30am 16.9 SSE 9 11 1015.3 - 0.0 - Cloudy 10 - - - -
06/04:00am 16.7 SE 8 11 1015.3 - 0.0 - Partly cloudy 10 - - - -
06/03:48am 16.2 ESE 7 10 1015.4 - 0.0 - Partly cloudy 10 - - - -
06/03:31am 15.8 ESE 8 9 1015.5 - 0.0 - Partly cloudy 10 - - - -
06/03:30am 15.9 ESE 8 9 1015.5 - 0.0 - Partly cloudy 10 - - - -
06/03:00am 16.8 SE 7 8 1015.8 - 0.0 - Mostly cloudy 10 - - - -
06/02:30am 16.8 SSE 8 11 1016.2 - 0.0 - Cloudy 10 - - - -
06/02:00am 16.6 SE 7 9 1016.5 - 0.0 - Cloudy 10 - - - -
06/01:39am 16.5 SSE 10 11 1016.7 - 0.0 - Partly cloudy 10 - - - -
06/01:30am 16.4 SSE 9 11 1016.7 - 0.0 - Partly cloudy 10 - - - -

Other Formats:

Comma delimited format used in spreadsheet applications
http://www.bom.gov.au/fwo/IDS60701/IDS60701.95661.axf

JavaScript Object Notation format (JSON) in row-major order
http://www.bom.gov.au/fwo/IDS60701/IDS60701.95661.json